Time;durP1;ratioP1;P1;durP2;ratioP2;P2;SDS_P1;SDS_P2;PMS_P1;PMS_P2;Temp;Humidity;BMP_temperature;BMP_pressure;BME280_temperature;BME280_humidity;BME280_pressure;Samples;Min_cycle;Max_cycle;Signal;HPM_P1;HPM_P2
2022/06/21 00:00:19;;;;;;;1.83;1.50;;;14.00;99.90;;;;;;4980424;28;20065;-72
2022/06/21 00:02:46;;;;;;;2.72;1.33;;;14.00;99.90;;;;;;4980157;28;20072;-73
2022/06/21 00:05:23;;;;;;;1.42;1.33;;;13.90;99.90;;;;;;4982013;28;20134;-72
2022/06/21 00:07:49;;;;;;;1.70;1.38;;;13.90;99.90;;;;;;4979579;28;20046;-72
2022/06/21 00:10:18;;;;;;;4.78;1.27;;;13.80;99.90;;;;;;4979447;28;20362;-73
2022/06/21 00:12:44;;;;;;;1.58;1.15;;;13.80;99.90;;;;;;4968374;28;20050;-76
2022/06/21 00:15:11;;;;;;;1.10;1.10;;;13.70;99.90;;;;;;4970466;28;20046;-72
2022/06/21 00:17:40;;;;;;;2.22;1.90;;;13.70;99.90;;;;;;4984498;28;20370;-73
2022/06/21 00:20:06;;;;;;;1.65;1.55;;;13.70;99.90;;;;;;4984631;28;20046;-73
2022/06/21 00:22:32;;;;;;;1.60;1.02;;;13.60;99.90;;;;;;4985333;28;20100;-73
2022/06/21 00:24:58;;;;;;;2.00;1.23;;;13.60;99.90;;;;;;4983723;28;20038;-72
2022/06/21 00:27:24;;;;;;;2.80;1.85;;;13.60;99.90;;;;;;4985048;28;20065;-72
2022/06/21 00:29:50;;;;;;;4.13;1.23;;;13.60;99.90;;;;;;4985096;28;20057;-72
2022/06/21 00:32:19;;;;;;;1.50;1.40;;;13.50;99.90;;;;;;4983838;28;20038;-72
2022/06/21 00:34:46;;;;;;;2.67;1.15;;;13.50;99.90;;;;;;4983630;28;20073;-73
2022/06/21 00:37:19;;;;;;;6.07;1.50;;;13.40;99.90;;;;;;4985148;28;20049;-73
2022/06/21 00:39:44;;;;;;;4.78;1.17;;;13.40;99.90;;;;;;4982034;28;20048;-73
2022/06/21 00:42:22;;;;;;;3.33;1.85;;;13.40;99.90;;;;;;4985174;28;20797;-72
2022/06/21 00:45:10;;;;;;;4.50;1.98;;;13.40;99.90;;;;;;4984538;28;20485;-73
2022/06/21 00:47:48;;;;;;;2.00;1.35;;;13.40;99.90;;;;;;4984309;28;20042;-73
2022/06/21 00:50:30;;;;;;;3.53;1.63;;;13.40;99.90;;;;;;4985114;28;20042;-74
2022/06/21 00:53:05;;;;;;;6.43;1.75;;;13.30;99.90;;;;;;4983470;28;20050;-73
2022/06/21 00:55:47;;;;;;;3.58;1.50;;;13.20;99.90;;;;;;4984920;28;20042;-73
2022/06/21 00:58:15;;;;;;;2.63;2.45;;;13.30;99.90;;;;;;4984587;28;20046;-73
2022/06/21 01:00:46;;;;;;;1.58;1.48;;;13.30;99.90;;;;;;4985242;28;20065;-73
2022/06/21 01:03:22;;;;;;;6.28;2.13;;;13.20;99.90;;;;;;4983051;28;20084;-73
2022/06/21 01:05:49;;;;;;;3.53;1.58;;;13.20;99.90;;;;;;4984010;28;20046;-73
2022/06/21 01:08:20;;;;;;;7.93;1.52;;;13.20;99.90;;;;;;4992758;23;20108;-73
2022/06/21 01:10:51;;;;;;;5.38;1.83;;;13.20;99.90;;;;;;5003638;28;20116;-73
2022/06/21 01:13:22;;;;;;;2.08;1.90;;;13.20;99.90;;;;;;4986290;28;20046;-72
2022/06/21 01:15:50;;;;;;;1.50;1.40;;;13.20;99.90;;;;;;4981513;28;20042;-73
2022/06/21 01:18:21;;;;;;;3.28;1.92;;;13.20;99.90;;;;;;4981422;28;20494;-73
2022/06/21 01:20:51;;;;;;;2.95;1.77;;;13.20;99.90;;;;;;4981619;28;20046;-72
2022/06/21 01:23:25;;;;;;;2.60;1.70;;;13.20;99.90;;;;;;4983555;28;20042;-73
2022/06/21 01:26:11;;;;;;;2.35;1.67;;;13.10;99.90;;;;;;4983805;28;20105;-72
2022/06/21 01:28:37;;;;;;;2.67;1.40;;;13.10;99.90;;;;;;5000970;28;20111;-73
2022/06/21 01:31:03;;;;;;;2.25;1.83;;;13.10;99.90;;;;;;5003918;28;20046;-72
2022/06/21 01:33:33;;;;;;;5.00;2.03;;;13.10;99.90;;;;;;5003424;28;20092;-72
2022/06/21 01:36:04;;;;;;;4.78;1.73;;;13.00;99.90;;;;;;5003092;28;20050;-73
2022/06/21 01:38:44;;;;;;;1.77;1.50;;;13.00;99.90;;;;;;5002560;28;20395;-73
2022/06/21 01:41:16;;;;;;;2.05;1.52;;;12.90;99.90;;;;;;4999340;28;20049;-73
2022/06/21 01:43:45;;;;;;;2.25;2.05;;;12.90;99.90;;;;;;4983504;28;20400;-73
2022/06/21 01:46:14;;;;;;;7.97;1.80;;;12.90;99.90;;;;;;4984907;28;20050;-72
2022/06/21 01:48:42;;;;;;;2.33;1.42;;;12.90;99.90;;;;;;5003572;28;20560;-72
2022/06/21 01:51:13;;;;;;;2.90;1.50;;;12.90;99.90;;;;;;5003220;28;20038;-73
2022/06/21 01:53:39;;;;;;;1.83;1.52;;;12.90;99.90;;;;;;5002729;28;20048;-72
2022/06/21 01:56:13;;;;;;;1.58;1.48;;;12.80;99.90;;;;;;5002649;28;20034;-73
2022/06/21 01:58:45;;;;;;;8.23;1.20;;;12.80;99.90;;;;;;5002882;28;20049;-73
2022/06/21 02:01:18;;;;;;;3.72;2.00;;;12.80;99.90;;;;;;5003695;28;20046;-73
2022/06/21 02:03:44;;;;;;;;;;;12.80;99.90;;;;;;5002073;28;20506;-75
2022/06/21 02:06:13;;;;;;;2.17;2.05;;;12.70;99.90;;;;;;5002856;28;19921;-73
2022/06/21 02:08:47;;;;;;;0.73;0.73;;;12.70;99.90;;;;;;5000807;28;20062;-73
2022/06/21 02:11:18;;;;;;;1.67;1.27;;;12.70;99.90;;;;;;5002782;28;20050;-73
2022/06/21 02:13:48;;;;;;;2.08;1.10;;;12.60;99.90;;;;;;5002969;28;20041;-77
2022/06/21 02:16:20;;;;;;;0.88;0.88;;;12.60;99.90;;;;;;5002314;28;20037;-72
2022/06/21 02:18:52;;;;;;;2.78;1.75;;;12.50;99.90;;;;;;5002263;28;20483;-72
2022/06/21 02:21:34;;;;;;;1.58;1.48;;;12.50;99.90;;;;;;5002220;28;20480;-73
2022/06/21 02:24:01;;;;;;;2.45;1.50;;;12.50;99.90;;;;;;5000062;28;20550;-72
2022/06/21 02:26:30;;;;;;;1.35;1.25;;;12.50;99.90;;;;;;5002650;28;20049;-73
2022/06/21 02:28:56;;;;;;;3.25;1.75;;;12.50;99.90;;;;;;5001259;28;20054;-72
2022/06/21 02:31:26;;;;;;;1.67;1.58;;;12.50;99.90;;;;;;5017633;28;20069;-72
2022/06/21 02:33:54;;;;;;;2.10;1.25;;;12.50;99.90;;;;;;5002100;28;20049;-73
2022/06/21 02:36:25;;;;;;;2.08;1.27;;;12.50;99.90;;;;;;5001300;28;20054;-73
2022/06/21 02:39:00;;;;;;;2.28;1.83;;;12.50;99.90;;;;;;5000462;28;20038;-72
2022/06/21 02:42:21;;;;;;;1.83;1.73;;;12.40;99.90;;;;;;5017216;28;20078;-72
2022/06/21 02:44:58;;;;;;;2.67;1.40;;;12.40;99.90;;;;;;4962693;28;20046;-73
2022/06/21 02:47:29;;;;;;;3.63;1.73;;;12.30;99.90;;;;;;5002073;28;20041;-72
2022/06/21 02:50:00;;;;;;;3.70;1.63;;;12.30;99.90;;;;;;5001836;28;20045;-72
2022/06/21 02:52:32;;;;;;;1.15;1.13;;;12.20;99.90;;;;;;5001218;28;20038;-74
2022/06/21 02:55:25;;;;;;;3.25;2.40;;;12.20;99.90;;;;;;5001735;28;20483;-72
2022/06/21 02:58:15;;;;;;;1.92;1.70;;;12.20;99.90;;;;;;5002029;28;20052;-72
2022/06/21 03:00:45;;;;;;;5.97;1.92;;;12.20;99.90;;;;;;5002747;28;20034;-72
2022/06/21 03:03:18;;;;;;;1.95;1.77;;;12.20;99.90;;;;;;5001096;28;20057;-72
2022/06/21 03:05:47;;;;;;;2.40;2.20;;;12.20;99.90;;;;;;5002022;28;20434;-76
2022/06/21 03:08:13;;;;;;;1.98;1.88;;;12.10;99.90;;;;;;5001238;28;20061;-73
2022/06/21 03:10:44;;;;;;;3.05;2.08;;;12.10;99.90;;;;;;5000354;28;20538;-72
2022/06/21 03:13:27;;;;;;;2.67;2.45;;;12.10;99.90;;;;;;5017034;28;20103;-72
2022/06/21 03:15:59;;;;;;;2.13;1.95;;;12.10;99.90;;;;;;4999980;28;20045;-72
2022/06/21 03:18:30;;;;;;;4.22;2.05;;;12.20;99.90;;;;;;5000942;28;20382;-73
2022/06/21 03:20:56;;;;;;;1.80;1.70;;;12.20;99.90;;;;;;5001419;28;20042;-72
2022/06/21 03:23:22;;;;;;;3.60;1.40;;;12.20;99.90;;;;;;5001232;28;20057;-73
2022/06/21 03:25:55;;;;;;;2.15;1.88;;;12.20;99.90;;;;;;5000181;28;20050;-72
2022/06/21 03:28:38;;;;;;;3.90;1.52;;;12.30;99.90;;;;;;5001493;28;20038;-72
2022/06/21 03:31:26;;;;;;;2.95;1.85;;;12.30;99.90;;;;;;5000853;28;20081;-72
2022/06/21 03:34:01;;;;;;;5.35;1.98;;;12.30;99.90;;;;;;4999862;28;20132;-72
2022/06/21 03:36:27;;;;;;;1.95;1.67;;;12.30;99.90;;;;;;5000980;28;20520;-73
2022/06/21 03:39:06;;;;;;;1.98;1.83;;;12.30;99.90;;;;;;4998339;28;20562;-72
2022/06/21 03:41:44;;;;;;;1.65;1.48;;;12.30;99.90;;;;;;5001252;28;20038;-72
2022/06/21 03:44:37;;;;;;;1.80;1.70;;;12.30;99.90;;;;;;5000458;28;20041;-72
2022/06/21 03:47:05;;;;;;;2.40;1.30;;;12.30;99.90;;;;;;4999469;28;20092;-73
2022/06/21 03:49:53;;;;;;;2.47;2.28;;;12.30;99.90;;;;;;5001279;28;20504;-73
2022/06/21 03:52:41;;;;;;;1.85;1.75;;;12.30;99.90;;;;;;4998857;28;20045;-73
2022/06/21 03:55:34;;;;;;;3.60;1.48;;;12.40;99.90;;;;;;5000909;28;20547;-73
2022/06/21 03:58:15;;;;;;;1.83;1.58;;;12.40;99.90;;;;;;4990177;28;20054;-73
2022/06/21 04:01:11;;;;;;;4.35;1.80;;;12.40;99.90;;;;;;5001359;28;20195;-72
2022/06/21 04:03:39;;;;;;;1.67;1.58;;;12.30;99.90;;;;;;5001207;28;20038;-73
2022/06/21 04:06:37;;;;;;;1.80;1.65;;;12.40;99.90;;;;;;5000527;28;20053;-73
2022/06/21 04:09:15;;;;;;;1.58;1.48;;;12.40;99.90;;;;;;4995962;28;20158;-72
2022/06/21 04:11:57;;;;;;;1.38;1.27;;;12.40;99.90;;;;;;4995585;28;20519;-73
2022/06/21 04:14:46;;;;;;;2.03;1.80;;;12.40;99.90;;;;;;4980056;28;20050;-73
2022/06/21 04:17:31;;;;;;;6.18;1.42;;;12.40;99.90;;;;;;4981597;28;20089;-73
2022/06/21 04:20:17;;;;;;;2.05;1.65;;;12.40;99.90;;;;;;4979907;28;20050;-73
2022/06/21 04:22:50;;;;;;;1.15;1.15;;;12.40;99.90;;;;;;4979526;28;20104;-73
2022/06/21 04:25:29;;;;;;;2.22;2.05;;;12.40;99.90;;;;;;4980116;28;20496;-73
2022/06/21 04:28:16;;;;;;;2.35;2.15;;;12.50;99.90;;;;;;4980828;28;20731;-73
2022/06/21 04:31:20;;;;;;;1.90;1.80;;;12.50;99.90;;;;;;4981731;28;20786;-73
2022/06/21 04:33:59;;;;;;;4.90;2.17;;;12.50;99.90;;;;;;4994348;28;20054;-73
2022/06/21 04:36:36;;;;;;;5.47;2.35;;;12.50;99.90;;;;;;4981219;28;20038;-73
2022/06/21 04:39:18;;;;;;;2.00;1.90;;;12.50;99.90;;;;;;4996448;28;20081;-73
2022/06/21 04:41:59;;;;;;;1.98;1.83;;;12.60;99.90;;;;;;5000841;28;20042;-73
2022/06/21 04:44:35;;;;;;;3.15;2.45;;;12.60;99.90;;;;;;4999315;28;20053;-73
2022/06/21 04:47:11;;;;;;;2.72;2.53;;;12.60;99.90;;;;;;4999564;28;20132;-73
2022/06/21 04:49:50;;;;;;;3.72;2.65;;;12.70;99.90;;;;;;5000268;28;20077;-73
2022/06/21 04:52:35;;;;;;;9.75;3.05;;;12.70;99.90;;;;;;4999326;28;20504;-73
2022/06/21 04:55:04;;;;;;;6.40;3.03;;;12.70;99.90;;;;;;4999906;28;20041;-73
2022/06/21 04:57:32;;;;;;;5.47;1.95;;;12.70;99.90;;;;;;5000089;28;20475;-72
2022/06/21 05:00:05;;;;;;;3.10;2.65;;;12.80;99.90;;;;;;5000179;28;20065;-72
2022/06/21 05:02:36;;;;;;;3.10;2.83;;;12.80;99.90;;;;;;5000515;28;20045;-73
2022/06/21 05:05:21;;;;;;;3.33;3.13;;;12.80;99.90;;;;;;5003587;28;20038;-73
2022/06/21 05:08:14;;;;;;;2.97;2.40;;;12.90;99.90;;;;;;5002412;28;20459;-73
2022/06/21 05:10:47;;;;;;;4.22;2.72;;;12.90;99.90;;;;;;5001867;28;20456;-73
2022/06/21 05:13:28;;;;;;;;;;;13.00;99.90;;;;;;5004638;28;20388;-73
2022/06/21 05:15:57;;;;;;;5.95;3.40;;;13.10;99.90;;;;;;5002521;28;19921;-73
2022/06/21 05:18:45;;;;;;;3.83;3.53;;;13.20;99.90;;;;;;5003178;28;20042;-73
2022/06/21 05:21:14;;;;;;;3.63;3.30;;;13.30;99.90;;;;;;5002084;28;20176;-73
2022/06/21 05:23:40;;;;;;;3.22;2.88;;;13.30;99.90;;;;;;5002671;28;20042;-73
2022/06/21 05:26:15;;;;;;;2.88;2.67;;;13.40;99.90;;;;;;5002687;28;20167;-73
2022/06/21 05:28:55;;;;;;;4.82;3.70;;;13.50;99.90;;;;;;4993136;28;20042;-73
2022/06/21 05:31:30;;;;;;;3.58;3.28;;;13.50;99.90;;;;;;5002469;28;20034;-73
2022/06/21 05:34:01;;;;;;;3.63;2.78;;;13.50;99.90;;;;;;5001626;28;20053;-73
2022/06/21 05:36:41;;;;;;;6.18;2.55;;;13.60;99.90;;;;;;5018679;28;20038;-74
2022/06/21 05:39:22;;;;;;;3.83;2.80;;;13.60;99.90;;;;;;4998820;28;20049;-73
2022/06/21 05:41:50;;;;;;;4.05;3.65;;;13.70;99.90;;;;;;5001230;28;20488;-71
2022/06/21 05:44:34;;;;;;;3.00;2.80;;;13.80;99.90;;;;;;5001883;28;20050;-72
2022/06/21 05:47:10;;;;;;;3.47;2.85;;;13.80;99.90;;;;;;5001928;28;20092;-72
2022/06/21 05:49:37;;;;;;;4.03;3.17;;;13.90;99.90;;;;;;5002465;28;20034;-73
2022/06/21 05:52:06;;;;;;;4.68;2.80;;;13.90;99.90;;;;;;5001326;28;20113;-73
2022/06/21 05:54:52;;;;;;;3.00;2.40;;;14.00;99.90;;;;;;5003269;28;20048;-73
2022/06/21 05:57:21;;;;;;;6.97;3.65;;;14.10;99.90;;;;;;4995945;28;20082;-72
2022/06/21 05:59:46;;;;;;;5.90;4.03;;;14.10;99.90;;;;;;4997995;28;20046;-73
2022/06/21 06:02:35;;;;;;;4.28;2.78;;;14.20;99.90;;;;;;5001668;28;20049;-73
2022/06/21 06:05:20;;;;;;;3.53;2.80;;;14.30;99.90;;;;;;4998983;28;20049;-74
2022/06/21 06:07:50;;;;;;;5.68;3.83;;;14.30;99.90;;;;;;4999023;28;20404;-73
2022/06/21 06:10:19;;;;;;;3.40;3.00;;;14.40;99.90;;;;;;5002449;28;20089;-74
2022/06/21 06:12:50;;;;;;;4.05;2.70;;;14.40;99.90;;;;;;4987619;28;20046;-74
2022/06/21 06:15:44;;;;;;;3.58;3.20;;;14.40;99.90;;;;;;4980947;28;20046;-74
2022/06/21 06:18:22;;;;;;;6.15;2.58;;;14.40;99.90;;;;;;4965824;28;20448;-73
2022/06/21 06:21:13;;;;;;;6.28;3.00;;;14.40;99.90;;;;;;4982369;28;20046;-73
2022/06/21 06:23:48;;;;;;;2.88;2.30;;;14.40;99.90;;;;;;4979662;28;20082;-73
2022/06/21 06:26:16;;;;;;;6.88;2.38;;;14.40;99.90;;;;;;4979589;28;20069;-74
2022/06/21 06:28:56;;;;;;;8.43;2.17;;;14.40;99.90;;;;;;4981975;28;20073;-73
2022/06/21 06:31:31;;;;;;;4.88;1.73;;;14.40;99.90;;;;;;4981275;28;20613;-73
2022/06/21 06:34:04;;;;;;;1.83;1.48;;;14.40;99.90;;;;;;4980807;28;20043;-73
2022/06/21 06:36:38;;;;;;;1.63;1.50;;;14.50;99.90;;;;;;4981559;28;20493;-73
2022/06/21 06:39:22;;;;;;;2.75;1.92;;;14.50;99.90;;;;;;4979965;28;20354;-72
2022/06/21 06:42:06;;;;;;;5.20;2.38;;;14.50;99.90;;;;;;4980834;28;20035;-73
2022/06/21 06:44:37;;;;;;;4.72;2.38;;;14.50;99.90;;;;;;4980990;28;20034;-73
2022/06/21 06:47:03;;;;;;;1.95;1.85;;;14.60;99.90;;;;;;4980272;28;20458;-72
2022/06/21 06:49:51;;;;;;;9.18;2.45;;;14.60;99.90;;;;;;4981093;28;20331;-72
2022/06/21 06:52:25;;;;;;;3.13;1.95;;;14.60;99.90;;;;;;4980018;28;20046;-73
2022/06/21 06:55:19;;;;;;;2.00;1.80;;;14.70;99.90;;;;;;4980544;28;20120;-73
2022/06/21 06:58:20;;;;;;;5.10;1.88;;;14.70;99.90;;;;;;4980538;28;20042;-73
2022/06/21 07:00:56;;;;;;;3.35;2.10;;;14.70;99.90;;;;;;4967262;28;20301;-73
2022/06/21 07:03:28;;;;;;;3.83;2.35;;;14.70;99.90;;;;;;4980392;28;20365;-73
2022/06/21 07:06:18;;;;;;;3.53;2.70;;;14.80;99.90;;;;;;4978396;28;20038;-72
2022/06/21 07:09:02;;;;;;;4.15;2.25;;;14.80;99.90;;;;;;4977966;28;20803;-74
2022/06/21 07:11:43;;;;;;;5.60;2.40;;;14.90;99.90;;;;;;4982935;28;20050;-73
2022/06/21 07:14:23;;;;;;;3.63;2.42;;;14.90;99.90;;;;;;5000833;28;20081;-73
2022/06/21 07:17:13;;;;;;;2.47;2.05;;;14.90;99.90;;;;;;4999552;28;20412;-73
2022/06/21 07:19:39;;;;;;;2.78;1.98;;;15.00;99.90;;;;;;4998705;28;20124;-72
2022/06/21 07:22:33;;;;;;;7.63;2.25;;;15.10;99.90;;;;;;4999156;28;20187;-73
2022/06/21 07:25:27;;;;;;;2.20;2.00;;;15.20;99.90;;;;;;4999192;28;20623;-72
2022/06/21 07:28:18;;;;;;;4.15;2.10;;;15.30;99.90;;;;;;4993310;28;20076;-73
2022/06/21 07:30:47;;;;;;;2.95;2.33;;;15.30;99.90;;;;;;4991671;28;20049;-74
2022/06/21 07:33:23;;;;;;;5.55;1.90;;;15.40;99.90;;;;;;5015296;28;20104;-73
2022/06/21 07:35:54;;;;;;;2.13;1.90;;;15.40;99.90;;;;;;5000045;28;20084;-73
2022/06/21 07:38:30;;;;;;;1.58;1.48;;;15.50;99.90;;;;;;4999009;28;20609;-73
2022/06/21 07:41:14;;;;;;;1.77;1.67;;;15.50;99.90;;;;;;4999543;28;20500;-73
2022/06/21 07:43:49;;;;;;;9.32;2.10;;;15.50;99.90;;;;;;4999012;28;20349;-73
2022/06/21 07:46:22;;;;;;;7.72;2.70;;;15.60;99.90;;;;;;4999303;28;20505;-73
2022/06/21 07:49:17;;;;;;;6.50;1.90;;;15.70;99.90;;;;;;4997395;28;20459;-73
2022/06/21 07:51:50;;;;;;;3.53;1.92;;;15.60;99.90;;;;;;5014067;28;20507;-73
2022/06/21 07:54:38;;;;;;;1.38;1.27;;;15.60;99.90;;;;;;4999529;28;20042;-73
2022/06/21 07:57:17;;;;;;;3.53;2.13;;;15.60;99.90;;;;;;4999541;28;20049;-73
2022/06/21 07:59:51;;;;;;;1.77;1.50;;;15.70;99.90;;;;;;4999816;28;20049;-73
2022/06/21 08:08:48;;;;;;;1.20;1.10;;;15.80;99.90;;;;;;4997435;28;20419;-73
2022/06/21 08:11:18;;;;;;;1.48;1.35;;;15.90;99.90;;;;;;4998990;28;20053;-74
2022/06/21 08:13:44;;;;;;;4.07;1.42;;;15.90;99.90;;;;;;4978277;28;20058;-74
2022/06/21 08:16:14;;;;;;;2.00;1.60;;;15.90;99.90;;;;;;4979045;28;20050;-73
2022/06/21 08:18:43;;;;;;;3.92;1.95;;;15.90;99.90;;;;;;4979509;28;20066;-73
2022/06/21 08:21:23;;;;;;;3.22;1.63;;;15.90;99.90;;;;;;4978939;28;20042;-73
2022/06/21 08:23:59;;;;;;;2.00;1.73;;;15.90;99.90;;;;;;4977569;28;20129;-73
2022/06/21 08:26:47;;;;;;;1.58;1.48;;;15.90;99.90;;;;;;4979770;28;20050;-73
2022/06/21 08:29:27;;;;;;;2.65;2.25;;;16.00;99.90;;;;;;4978707;28;20555;-73
2022/06/21 08:32:02;;;;;;;1.70;1.50;;;16.10;99.90;;;;;;4979436;28;20124;-75
2022/06/21 08:34:40;;;;;;;3.22;1.77;;;16.10;99.90;;;;;;4979089;28;20203;-73
2022/06/21 08:37:12;;;;;;;2.47;1.45;;;16.20;99.90;;;;;;4978966;28;20038;-73
2022/06/21 08:39:41;;;;;;;1.65;1.55;;;16.20;99.90;;;;;;4984277;28;20122;-73
2022/06/21 08:42:33;;;;;;;2.50;1.42;;;16.30;99.90;;;;;;4983593;28;20122;-74
2022/06/21 08:48:20;;;;;;;1.60;1.50;;;16.40;99.90;;;;;;4984638;28;20050;-74
2022/06/21 08:51:27;;;;;;;3.15;2.20;;;16.50;99.90;;;;;;4983822;28;20042;-75
2022/06/21 08:54:25;;;;;;;3.78;2.25;;;16.50;99.90;;;;;;4982907;28;20054;-74
2022/06/21 08:57:06;;;;;;;4.43;2.63;;;16.50;99.90;;;;;;4982279;28;20047;-75
2022/06/21 08:59:53;;;;;;;2.28;2.08;;;16.60;99.90;;;;;;4983955;28;20082;-75
2022/06/21 09:02:46;;;;;;;3.05;1.90;;;16.70;99.90;;;;;;4984147;28;20133;-74
2022/06/21 09:05:24;;;;;;;1.75;1.65;;;16.70;99.90;;;;;;4982797;28;20088;-75
2022/06/21 09:08:11;;;;;;;3.75;1.40;;;16.80;99.90;;;;;;4982229;28;20386;-74
2022/06/21 09:10:39;;;;;;;1.67;1.30;;;16.80;99.90;;;;;;4983683;28;20065;-74
2022/06/21 09:13:14;;;;;;;1.65;1.20;;;16.90;99.90;;;;;;4999288;28;20042;-74
2022/06/21 09:16:22;;;;;;;2.80;1.60;;;17.00;99.90;;;;;;5001878;28;20076;-74
2022/06/21 09:19:04;;;;;;;3.50;1.80;;;17.10;99.90;;;;;;4994297;28;20124;-74
2022/06/21 09:22:14;;;;;;;1.25;1.13;;;17.20;99.90;;;;;;5002383;28;20072;-74
2022/06/21 09:25:01;;;;;;;1.65;1.55;;;17.30;99.90;;;;;;4990626;28;20491;-73
2022/06/21 09:27:33;;;;;;;5.45;1.75;;;17.40;99.90;;;;;;5002859;28;20037;-74
2022/06/21 09:30:07;;;;;;;1.85;1.75;;;17.60;99.90;;;;;;5002435;28;20050;-74
2022/06/21 09:33:09;;;;;;;1.35;1.25;;;17.70;99.90;;;;;;5003039;28;20480;-74
2022/06/21 09:36:18;;;;;;;1.67;1.50;;;17.70;99.90;;;;;;5002483;28;20046;-74
2022/06/21 09:38:44;;;;;;;1.27;1.05;;;17.70;99.90;;;;;;4989238;28;20045;-76
2022/06/21 09:41:20;;;;;;;1.33;1.17;;;17.70;99.90;;;;;;5002784;28;20050;-73
2022/06/21 09:44:11;;;;;;;1.23;1.15;;;17.80;99.90;;;;;;5001275;28;20485;-74
2022/06/21 09:46:58;;;;;;;1.00;1.00;;;17.80;99.90;;;;;;5002982;28;20034;-74
2022/06/21 09:49:50;;;;;;;1.10;1.00;;;17.80;99.90;;;;;;4999473;28;20408;-74
2022/06/21 09:52:30;;;;;;;0.98;0.98;;;17.80;99.90;;;;;;5016928;28;20511;-74
2022/06/21 09:55:33;;;;;;;6.03;1.33;;;17.80;99.90;;;;;;5002222;28;20062;-74
2022/06/21 09:58:07;;;;;;;;;;;17.80;99.90;;;;;;4999285;28;20480;-74
2022/06/21 10:01:03;;;;;;;1.90;1.38;;;17.70;99.90;;;;;;5020806;28;20477;-74
2022/06/21 10:03:47;;;;;;;2.88;1.15;;;17.80;99.90;;;;;;4996601;28;20056;-74
2022/06/21 10:06:28;;;;;;;1.77;1.10;;;17.80;99.90;;;;;;4990746;28;20042;-74
2022/06/21 10:08:53;;;;;;;5.55;1.48;;;17.80;99.90;;;;;;4996773;28;20077;-74
2022/06/21 10:11:37;;;;;;;1.13;1.08;;;17.80;99.90;;;;;;4995707;28;20042;-74
2022/06/21 10:14:09;;;;;;;1.20;1.20;;;17.80;99.90;;;;;;4992818;28;20141;-74
2022/06/21 10:16:52;;;;;;;0.98;0.98;;;17.70;99.90;;;;;;4994458;28;20135;-73
2022/06/21 10:19:51;;;;;;;1.67;1.17;;;17.70;99.90;;;;;;4996588;28;20041;-73
2022/06/21 10:22:35;;;;;;;0.95;0.85;;;17.70;99.90;;;;;;4998889;28;20239;-73
2022/06/21 10:25:08;;;;;;;3.70;1.27;;;17.70;99.90;;;;;;5000389;28;20038;-73
2022/06/21 10:27:58;;;;;;;2.03;1.25;;;17.80;99.90;;;;;;5001117;28;20236;-72
2022/06/21 10:30:39;;;;;;;4.18;1.52;;;17.80;99.90;;;;;;5001011;28;20053;-73
2022/06/21 10:33:21;;;;;;;1.70;1.20;;;17.80;99.90;;;;;;4982963;28;20045;-73
2022/06/21 10:35:54;;;;;;;;;;;17.80;99.90;;;;;;5000855;28;20056;-74
2022/06/21 10:38:46;;;;;;;1.35;1.25;;;17.80;99.90;;;;;;5000705;28;20020;-72
2022/06/21 10:41:20;;;;;;;;;;;17.80;99.90;;;;;;5001513;28;20046;-72
2022/06/21 10:44:04;;;;;;;1.63;1.23;;;17.80;99.90;;;;;;5000769;28;19928;-73
2022/06/21 10:46:49;;;;;;;3.28;1.30;;;17.90;99.90;;;;;;5000251;28;20509;-72
2022/06/21 10:49:56;;;;;;;1.27;1.17;;;17.90;99.90;;;;;;4999803;28;20105;-72
2022/06/21 10:52:44;;;;;;;1.40;1.27;;;18.00;99.90;;;;;;4998904;28;20042;-73
2022/06/21 10:55:21;;;;;;;1.77;1.40;;;18.00;99.90;;;;;;5000499;28;20073;-73
2022/06/21 10:58:05;;;;;;;5.18;1.38;;;18.10;99.90;;;;;;4999657;28;20069;-74
2022/06/21 11:03:36;;;;;;;1.42;1.15;;;18.20;99.90;;;;;;5001480;28;20058;-73
2022/06/21 11:06:07;;;;;;;1.85;1.38;;;18.20;99.90;;;;;;5000413;28;20408;-74
2022/06/21 11:08:45;;;;;;;1.33;1.23;;;18.20;99.90;;;;;;5000870;28;20058;-73
2022/06/21 11:11:19;;;;;;;1.75;1.65;;;18.30;99.90;;;;;;5001699;28;20054;-73
2022/06/21 11:14:09;;;;;;;2.45;1.33;;;18.30;99.90;;;;;;5000166;28;20034;-74
2022/06/21 11:16:49;;;;;;;2.53;0.93;;;18.20;99.90;;;;;;5000638;28;20041;-73
2022/06/21 11:19:28;;;;;;;2.00;1.80;;;18.20;99.90;;;;;;5000218;28;20113;-74
2022/06/21 11:21:59;;;;;;;2.50;1.10;;;18.20;99.90;;;;;;4999437;28;20377;-73
2022/06/21 11:24:35;;;;;;;7.43;1.45;;;18.30;99.90;;;;;;4994118;28;20053;-73
2022/06/21 11:27:15;;;;;;;1.50;1.40;;;18.20;99.90;;;;;;4985994;28;20050;-74
2022/06/21 11:30:03;;;;;;;1.45;1.35;;;18.20;99.90;;;;;;4988628;28;20484;-73
2022/06/21 11:33:05;;;;;;;1.60;1.27;;;18.30;99.90;;;;;;5018544;28;20045;-73
2022/06/21 11:36:12;;;;;;;2.58;1.33;;;18.30;99.90;;;;;;4997529;28;20148;-75
2022/06/21 11:39:05;;;;;;;3.35;0.93;;;18.30;99.90;;;;;;4979727;28;20049;-72
2022/06/21 11:42:05;;;;;;;0.95;0.82;;;18.40;99.90;;;;;;5000630;28;20576;-72
2022/06/21 11:44:46;;;;;;;0.90;0.90;;;18.40;99.90;;;;;;4998922;28;20111;-73
2022/06/21 11:47:25;;;;;;;3.40;0.77;;;18.50;99.90;;;;;;5000989;28;20120;-73
2022/06/21 11:50:20;;;;;;;1.35;1.20;;;18.50;99.90;;;;;;4998875;28;20046;-73
2022/06/21 11:53:14;;;;;;;2.35;1.33;;;18.60;99.90;;;;;;4999165;28;20111;-74
2022/06/21 11:55:55;;;;;;;2.25;1.52;;;18.70;99.90;;;;;;5001212;28;20376;-73
2022/06/21 11:58:47;;;;;;;1.42;1.13;;;18.80;99.90;;;;;;4998586;28;20117;-74
2022/06/21 12:01:31;;;;;;;3.00;1.23;;;18.80;99.90;;;;;;4991342;28;20042;-73
2022/06/21 12:04:16;;;;;;;5.55;2.05;;;18.90;99.90;;;;;;4985527;28;20054;-73
2022/06/21 12:07:07;;;;;;;2.97;1.17;;;18.90;99.90;;;;;;5012093;28;20121;-72
2022/06/21 12:09:40;;;;;;;0.83;0.83;;;18.90;99.90;;;;;;4980962;28;20291;-73
2022/06/21 12:12:25;;;;;;;3.60;1.23;;;18.90;99.90;;;;;;4988034;28;20519;-73
2022/06/21 12:14:51;;;;;;;3.90;1.08;;;19.00;99.90;;;;;;5008946;28;20038;-73
2022/06/21 12:17:22;;;;;;;1.63;1.17;;;19.00;99.90;;;;;;5011362;28;20104;-74
2022/06/21 12:20:01;;;;;;;2.72;1.23;;;19.10;99.90;;;;;;4987390;28;20499;-73
2022/06/21 12:22:48;;;;;;;1.55;1.45;;;19.20;99.90;;;;;;4984598;28;20046;-72
2022/06/21 12:25:17;;;;;;;1.15;1.05;;;19.30;99.90;;;;;;5001795;28;20500;-75
2022/06/21 12:27:44;;;;;;;1.42;0.90;;;19.30;99.90;;;;;;5003542;28;20041;-72
2022/06/21 12:30:26;;;;;;;0.82;0.82;;;19.30;99.90;;;;;;5004103;28;20117;-72
2022/06/21 12:32:59;;;;;;;1.75;1.33;;;19.20;99.90;;;;;;5017178;28;20045;-72
2022/06/21 12:35:43;;;;;;;1.80;1.17;;;19.30;99.90;;;;;;5002395;28;20431;-73
2022/06/21 12:38:13;;;;;;;1.65;1.13;;;19.30;99.90;;;;;;5015733;28;20050;-73
2022/06/21 12:40:52;;;;;;;1.58;1.48;;;19.30;99.90;;;;;;5004385;28;20506;-73
2022/06/21 12:43:34;;;;;;;5.75;2.47;;;19.30;99.90;;;;;;5003991;28;20460;-73
2022/06/21 12:46:19;;;;;;;0.70;0.70;;;19.20;99.90;;;;;;5019148;28;20124;-72
2022/06/21 12:49:01;;;;;;;1.60;0.88;;;19.20;99.90;;;;;;5001717;28;20077;-73
2022/06/21 12:51:41;;;;;;;5.10;1.83;;;19.30;99.90;;;;;;5002589;28;20370;-72
2022/06/21 12:54:10;;;;;;;0.70;0.70;;;19.30;99.90;;;;;;5003402;28;20046;-74
2022/06/21 12:57:01;;;;;;;1.65;1.30;;;19.40;99.90;;;;;;5003456;28;20038;-73
2022/06/21 12:59:41;;;;;;;2.78;1.40;;;19.40;99.90;;;;;;4984188;28;20232;-72
2022/06/21 13:02:28;;;;;;;1.45;1.08;;;19.40;99.90;;;;;;4983582;28;20213;-73
2022/06/21 13:05:15;;;;;;;1.77;1.60;;;19.40;99.90;;;;;;4999260;28;20076;-73
2022/06/21 13:08:02;;;;;;;1.40;1.13;;;19.40;99.90;;;;;;4983694;28;20053;-74
2022/06/21 13:10:39;;;;;;;1.35;0.95;;;19.40;99.90;;;;;;5017934;28;20064;-74
2022/06/21 13:13:15;;;;;;;1.30;1.08;;;19.40;99.90;;;;;;5001674;28;20124;-73
2022/06/21 13:16:02;;;;;;;1.73;1.55;;;19.40;99.90;;;;;;5003846;28;20135;-73
2022/06/21 13:19:05;;;;;;;1.30;1.20;;;19.40;99.90;;;;;;5002908;28;20046;-73
2022/06/21 13:21:45;;;;;;;3.17;1.50;;;19.40;99.90;;;;;;5002441;28;20120;-73
2022/06/21 13:24:13;;;;;;;5.60;1.10;;;19.30;99.90;;;;;;5002318;28;20046;-72
2022/06/21 13:27:00;;;;;;;2.05;0.90;;;19.30;99.90;;;;;;5003856;28;20104;-73
2022/06/21 13:29:53;;;;;;;1.15;1.05;;;19.20;99.90;;;;;;5001916;28;20045;-74
2022/06/21 13:32:24;;;;;;;1.27;1.02;;;19.20;99.90;;;;;;4983645;28;20092;-73
2022/06/21 13:34:56;;;;;;;1.35;1.20;;;19.20;99.90;;;;;;4993868;28;20074;-72
2022/06/21 13:37:33;;;;;;;1.75;1.30;;;19.30;99.90;;;;;;4996418;28;20042;-72
2022/06/21 13:40:08;;;;;;;2.88;1.50;;;19.30;99.90;;;;;;4993001;28;20107;-74
2022/06/21 13:42:48;;;;;;;1.52;1.10;;;19.30;99.90;;;;;;4996449;28;20041;-73
2022/06/21 13:45:32;;;;;;;3.28;0.90;;;19.30;99.90;;;;;;4994579;28;20046;-74
2022/06/21 13:48:29;;;;;;;1.92;1.40;;;19.40;99.90;;;;;;5010571;28;20041;-73
2022/06/21 13:51:26;;;;;;;1.27;1.17;;;19.40;99.90;;;;;;4995978;28;20058;-73
2022/06/21 13:53:58;;;;;;;1.27;1.17;;;19.50;99.90;;;;;;4978529;28;20882;-73
2022/06/21 13:56:24;;;;;;;;;;;19.50;99.90;;;;;;5000865;28;20066;-73
2022/06/21 13:58:57;;;;;;;1.52;1.42;;;19.60;99.90;;;;;;5001893;28;20297;-74